sensor_id;sensor_type;location;lat;lon;timestamp;P1;durP1;ratioP1;P2;durP2;ratioP2
12248;SDS011;6187;50.778;6.142;2022-08-19T00:00:21;7.33;;;6.83;;
12248;SDS011;6187;50.778;6.142;2022-08-19T00:02:51;6.67;;;6.17;;
12248;SDS011;6187;50.778;6.142;2022-08-19T00:05:21;7.30;;;6.80;;
12248;SDS011;6187;50.778;6.142;2022-08-19T00:07:50;7.10;;;6.60;;
12248;SDS011;6187;50.778;6.142;2022-08-19T00:10:19;7.33;;;6.80;;
12248;SDS011;6187;50.778;6.142;2022-08-19T00:12:48;7.33;;;6.83;;
12248;SDS011;6187;50.778;6.142;2022-08-19T00:15:18;7.10;;;6.60;;
12248;SDS011;6187;50.778;6.142;2022-08-19T00:17:47;7.17;;;6.57;;
12248;SDS011;6187;50.778;6.142;2022-08-19T00:20:19;7.53;;;7.00;;
12248;SDS011;6187;50.778;6.142;2022-08-19T00:22:47;6.80;;;6.30;;
12248;SDS011;6187;50.778;6.142;2022-08-19T00:25:16;7.10;;;6.50;;
12248;SDS011;6187;50.778;6.142;2022-08-19T00:27:56;7.13;;;6.63;;
12248;SDS011;6187;50.778;6.142;2022-08-19T00:30:25;7.10;;;6.60;;
12248;SDS011;6187;50.778;6.142;2022-08-19T00:32:54;8.27;;;7.67;;
12248;SDS011;6187;50.778;6.142;2022-08-19T00:35:24;7.60;;;7.10;;
12248;SDS011;6187;50.778;6.142;2022-08-19T00:37:54;8.27;;;7.67;;
12248;SDS011;6187;50.778;6.142;2022-08-19T00:40:23;8.30;;;7.70;;
12248;SDS011;6187;50.778;6.142;2022-08-19T00:42:52;8.70;;;8.10;;
12248;SDS011;6187;50.778;6.142;2022-08-19T00:45:22;8.27;;;7.67;;
12248;SDS011;6187;50.778;6.142;2022-08-19T00:47:50;9.10;;;8.40;;
12248;SDS011;6187;50.778;6.142;2022-08-19T00:50:19;9.27;;;8.57;;
12248;SDS011;6187;50.778;6.142;2022-08-19T00:52:50;8.27;;;7.67;;
12248;SDS011;6187;50.778;6.142;2022-08-19T00:55:20;8.03;;;7.47;;
12248;SDS011;6187;50.778;6.142;2022-08-19T00:57:51;8.47;;;7.87;;
12248;SDS011;6187;50.778;6.142;2022-08-19T01:00:22;8.97;;;8.17;;
12248;SDS011;6187;50.778;6.142;2022-08-19T01:02:52;11.67;;;10.77;;
12248;SDS011;6187;50.778;6.142;2022-08-19T01:05:21;13.47;;;12.37;;
12248;SDS011;6187;50.778;6.142;2022-08-19T01:07:52;15.90;;;14.63;;
12248;SDS011;6187;50.778;6.142;2022-08-19T01:10:22;15.87;;;14.60;;
12248;SDS011;6187;50.778;6.142;2022-08-19T01:12:51;15.00;;;13.73;;
12248;SDS011;6187;50.778;6.142;2022-08-19T01:15:21;16.03;;;14.73;;
12248;SDS011;6187;50.778;6.142;2022-08-19T01:17:51;16.47;;;15.07;;
12248;SDS011;6187;50.778;6.142;2022-08-19T01:20:21;15.37;;;14.27;;
12248;SDS011;6187;50.778;6.142;2022-08-19T01:22:52;15.63;;;14.33;;
12248;SDS011;6187;50.778;6.142;2022-08-19T01:25:22;15.37;;;14.17;;
12248;SDS011;6187;50.778;6.142;2022-08-19T01:27:54;15.90;;;14.60;;
12248;SDS011;6187;50.778;6.142;2022-08-19T01:30:36;15.13;;;13.93;;
12248;SDS011;6187;50.778;6.142;2022-08-19T01:33:10;15.10;;;13.80;;
12248;SDS011;6187;50.778;6.142;2022-08-19T01:35:39;13.03;;;12.03;;
12248;SDS011;6187;50.778;6.142;2022-08-19T01:38:10;15.43;;;14.13;;
12248;SDS011;6187;50.778;6.142;2022-08-19T01:40:39;15.10;;;13.90;;
12248;SDS011;6187;50.778;6.142;2022-08-19T01:43:08;16.20;;;14.90;;
12248;SDS011;6187;50.778;6.142;2022-08-19T01:45:37;14.73;;;13.53;;
12248;SDS011;6187;50.778;6.142;2022-08-19T01:48:06;15.60;;;14.20;;
12248;SDS011;6187;50.778;6.142;2022-08-19T01:50:35;14.43;;;13.33;;
12248;SDS011;6187;50.778;6.142;2022-08-19T01:53:05;16.70;;;15.40;;
12248;SDS011;6187;50.778;6.142;2022-08-19T01:55:36;16.67;;;15.37;;
12248;SDS011;6187;50.778;6.142;2022-08-19T01:58:07;15.70;;;14.50;;
12248;SDS011;6187;50.778;6.142;2022-08-19T02:00:37;13.53;;;12.53;;
12248;SDS011;6187;50.778;6.142;2022-08-19T02:03:05;13.20;;;12.20;;
12248;SDS011;6187;50.778;6.142;2022-08-19T02:05:35;13.07;;;12.07;;
12248;SDS011;6187;50.778;6.142;2022-08-19T02:08:04;11.57;;;10.67;;
12248;SDS011;6187;50.778;6.142;2022-08-19T02:10:33;10.37;;;9.57;;
12248;SDS011;6187;50.778;6.142;2022-08-19T02:13:02;9.90;;;9.20;;
12248;SDS011;6187;50.778;6.142;2022-08-19T02:15:31;9.63;;;8.93;;
12248;SDS011;6187;50.778;6.142;2022-08-19T02:18:00;10.30;;;9.57;;
12248;SDS011;6187;50.778;6.142;2022-08-19T02:20:28;10.63;;;9.73;;
12248;SDS011;6187;50.778;6.142;2022-08-19T02:22:57;9.97;;;9.27;;
12248;SDS011;6187;50.778;6.142;2022-08-19T02:25:27;10.57;;;9.77;;
12248;SDS011;6187;50.778;6.142;2022-08-19T02:27:56;10.40;;;9.60;;
12248;SDS011;6187;50.778;6.142;2022-08-19T02:30:26;10.47;;;9.67;;
12248;SDS011;6187;50.778;6.142;2022-08-19T02:32:55;10.83;;;10.00;;
12248;SDS011;6187;50.778;6.142;2022-08-19T02:35:24;10.43;;;9.63;;
12248;SDS011;6187;50.778;6.142;2022-08-19T02:37:53;10.60;;;9.80;;
12248;SDS011;6187;50.778;6.142;2022-08-19T02:40:39;10.20;;;9.43;;
12248;SDS011;6187;50.778;6.142;2022-08-19T02:43:08;9.70;;;8.93;;
12248;SDS011;6187;50.778;6.142;2022-08-19T02:45:38;9.43;;;8.73;;
12248;SDS011;6187;50.778;6.142;2022-08-19T02:48:07;9.30;;;8.60;;
12248;SDS011;6187;50.778;6.142;2022-08-19T02:50:47;9.67;;;8.97;;
12248;SDS011;6187;50.778;6.142;2022-08-19T02:53:19;9.93;;;9.13;;
12248;SDS011;6187;50.778;6.142;2022-08-19T02:55:48;10.37;;;9.57;;
12248;SDS011;6187;50.778;6.142;2022-08-19T02:58:17;13.03;;;11.90;;
12248;SDS011;6187;50.778;6.142;2022-08-19T03:00:49;15.17;;;13.97;;
12248;SDS011;6187;50.778;6.142;2022-08-19T03:03:18;13.70;;;12.60;;
12248;SDS011;6187;50.778;6.142;2022-08-19T03:05:46;14.40;;;13.23;;
12248;SDS011;6187;50.778;6.142;2022-08-19T03:08:22;12.67;;;11.77;;
12248;SDS011;6187;50.778;6.142;2022-08-19T03:10:52;12.73;;;11.73;;
12248;SDS011;6187;50.778;6.142;2022-08-19T03:13:21;12.70;;;11.70;;
12248;SDS011;6187;50.778;6.142;2022-08-19T03:15:51;12.13;;;11.20;;
12248;SDS011;6187;50.778;6.142;2022-08-19T03:18:20;12.23;;;11.33;;
12248;SDS011;6187;50.778;6.142;2022-08-19T03:20:51;12.50;;;11.57;;
12248;SDS011;6187;50.778;6.142;2022-08-19T03:23:21;14.47;;;13.30;;
12248;SDS011;6187;50.778;6.142;2022-08-19T03:25:50;13.73;;;12.63;;
12248;SDS011;6187;50.778;6.142;2022-08-19T03:28:31;14.00;;;12.90;;
12248;SDS011;6187;50.778;6.142;2022-08-19T03:31:02;12.80;;;11.77;;
12248;SDS011;6187;50.778;6.142;2022-08-19T03:33:52;15.03;;;13.83;;
12248;SDS011;6187;50.778;6.142;2022-08-19T03:36:22;13.40;;;12.33;;
12248;SDS011;6187;50.778;6.142;2022-08-19T03:38:52;12.93;;;11.93;;
12248;SDS011;6187;50.778;6.142;2022-08-19T03:41:26;12.50;;;11.60;;
12248;SDS011;6187;50.778;6.142;2022-08-19T03:44:10;12.97;;;11.97;;
12248;SDS011;6187;50.778;6.142;2022-08-19T03:46:45;12.47;;;11.47;;
12248;SDS011;6187;50.778;6.142;2022-08-19T03:49:14;13.40;;;12.30;;
12248;SDS011;6187;50.778;6.142;2022-08-19T03:51:44;12.87;;;11.87;;
12248;SDS011;6187;50.778;6.142;2022-08-19T03:54:14;14.07;;;12.87;;
12248;SDS011;6187;50.778;6.142;2022-08-19T03:56:44;14.40;;;13.30;;
12248;SDS011;6187;50.778;6.142;2022-08-19T03:59:15;18.53;;;17.03;;
12248;SDS011;6187;50.778;6.142;2022-08-19T04:01:43;19.27;;;17.67;;
12248;SDS011;6187;50.778;6.142;2022-08-19T04:04:13;16.60;;;15.30;;
12248;SDS011;6187;50.778;6.142;2022-08-19T04:06:45;16.17;;;14.87;;
12248;SDS011;6187;50.778;6.142;2022-08-19T04:09:14;15.13;;;13.93;;
12248;SDS011;6187;50.778;6.142;2022-08-19T04:11:46;15.00;;;13.87;;
12248;SDS011;6187;50.778;6.142;2022-08-19T04:14:16;14.87;;;13.67;;
12248;SDS011;6187;50.778;6.142;2022-08-19T04:16:45;16.57;;;15.23;;
12248;SDS011;6187;50.778;6.142;2022-08-19T04:19:16;16.30;;;15.00;;
12248;SDS011;6187;50.778;6.142;2022-08-19T04:21:45;16.63;;;15.23;;
12248;SDS011;6187;50.778;6.142;2022-08-19T04:24:15;17.93;;;16.43;;
12248;SDS011;6187;50.778;6.142;2022-08-19T04:26:44;17.63;;;16.13;;
12248;SDS011;6187;50.778;6.142;2022-08-19T04:29:14;18.27;;;16.73;;
12248;SDS011;6187;50.778;6.142;2022-08-19T04:31:43;26.20;;;23.70;;
12248;SDS011;6187;50.778;6.142;2022-08-19T04:34:13;33.00;;;29.70;;
12248;SDS011;6187;50.778;6.142;2022-08-19T04:36:44;33.90;;;30.53;;
12248;SDS011;6187;50.778;6.142;2022-08-19T04:39:14;33.80;;;30.17;;
12248;SDS011;6187;50.778;6.142;2022-08-19T04:41:43;37.17;;;32.93;;
12248;SDS011;6187;50.778;6.142;2022-08-19T04:44:29;36.37;;;32.60;;
12248;SDS011;6187;50.778;6.142;2022-08-19T04:47:01;34.17;;;30.57;;
12248;SDS011;6187;50.778;6.142;2022-08-19T04:49:37;36.27;;;32.53;;
12248;SDS011;6187;50.778;6.142;2022-08-19T04:52:07;38.30;;;33.53;;
12248;SDS011;6187;50.778;6.142;2022-08-19T04:54:36;37.20;;;33.13;;
12248;SDS011;6187;50.778;6.142;2022-08-19T04:57:05;32.57;;;29.07;;
12248;SDS011;6187;50.778;6.142;2022-08-19T04:59:35;38.63;;;33.93;;
12248;SDS011;6187;50.778;6.142;2022-08-19T05:02:04;33.43;;;29.90;;
12248;SDS011;6187;50.778;6.142;2022-08-19T05:04:32;33.13;;;29.73;;
12248;SDS011;6187;50.778;6.142;2022-08-19T05:07:04;37.17;;;32.63;;
12248;SDS011;6187;50.778;6.142;2022-08-19T05:09:35;31.90;;;28.50;;
12248;SDS011;6187;50.778;6.142;2022-08-19T05:12:24;37.07;;;32.50;;
12248;SDS011;6187;50.778;6.142;2022-08-19T05:14:55;40.83;;;35.33;;
12248;SDS011;6187;50.778;6.142;2022-08-19T05:17:24;34.30;;;30.33;;
12248;SDS011;6187;50.778;6.142;2022-08-19T05:19:57;32.57;;;28.30;;
12248;SDS011;6187;50.778;6.142;2022-08-19T05:22:44;31.77;;;28.30;;
12248;SDS011;6187;50.778;6.142;2022-08-19T05:25:16;31.70;;;28.50;;
12248;SDS011;6187;50.778;6.142;2022-08-19T05:27:46;30.07;;;26.90;;
12248;SDS011;6187;50.778;6.142;2022-08-19T05:30:15;28.33;;;25.43;;
12248;SDS011;6187;50.778;6.142;2022-08-19T05:32:44;26.33;;;23.57;;
12248;SDS011;6187;50.778;6.142;2022-08-19T05:35:12;30.27;;;27.03;;
12248;SDS011;6187;50.778;6.142;2022-08-19T05:37:41;28.47;;;25.43;;
12248;SDS011;6187;50.778;6.142;2022-08-19T05:40:10;28.70;;;25.70;;
12248;SDS011;6187;50.778;6.142;2022-08-19T05:42:40;29.60;;;26.43;;
12248;SDS011;6187;50.778;6.142;2022-08-19T05:45:09;29.37;;;26.17;;
12248;SDS011;6187;50.778;6.142;2022-08-19T05:47:39;31.50;;;28.20;;
12248;SDS011;6187;50.778;6.142;2022-08-19T05:50:08;28.23;;;25.17;;
12248;SDS011;6187;50.778;6.142;2022-08-19T05:52:37;31.40;;;28.20;;
12248;SDS011;6187;50.778;6.142;2022-08-19T05:55:16;32.07;;;28.77;;
12248;SDS011;6187;50.778;6.142;2022-08-19T05:57:48;29.40;;;26.50;;
12248;SDS011;6187;50.778;6.142;2022-08-19T06:00:16;29.83;;;26.93;;
12248;SDS011;6187;50.778;6.142;2022-08-19T06:02:50;34.63;;;31.13;;
12248;SDS011;6187;50.778;6.142;2022-08-19T06:05:21;28.90;;;26.10;;
12248;SDS011;6187;50.778;6.142;2022-08-19T06:07:50;28.33;;;25.63;;
12248;SDS011;6187;50.778;6.142;2022-08-19T06:10:19;26.37;;;23.77;;
12248;SDS011;6187;50.778;6.142;2022-08-19T06:12:50;23.57;;;21.53;;
12248;SDS011;6187;50.778;6.142;2022-08-19T06:15:18;24.23;;;21.90;;
12248;SDS011;6187;50.778;6.142;2022-08-19T06:17:48;23.83;;;21.73;;
12248;SDS011;6187;50.778;6.142;2022-08-19T06:20:17;22.63;;;20.53;;
12248;SDS011;6187;50.778;6.142;2022-08-19T06:23:06;24.13;;;21.83;;
12248;SDS011;6187;50.778;6.142;2022-08-19T06:25:35;23.20;;;21.10;;
12248;SDS011;6187;50.778;6.142;2022-08-19T06:28:05;27.17;;;24.60;;
12248;SDS011;6187;50.778;6.142;2022-08-19T06:30:41;27.53;;;24.83;;
12248;SDS011;6187;50.778;6.142;2022-08-19T06:33:09;25.67;;;23.23;;
12248;SDS011;6187;50.778;6.142;2022-08-19T06:35:38;22.53;;;20.43;;
12248;SDS011;6187;50.778;6.142;2022-08-19T06:38:07;23.97;;;21.80;;
12248;SDS011;6187;50.778;6.142;2022-08-19T06:40:36;29.30;;;26.50;;
12248;SDS011;6187;50.778;6.142;2022-08-19T06:43:06;27.10;;;24.50;;
12248;SDS011;6187;50.778;6.142;2022-08-19T06:45:36;24.33;;;22.10;;
12248;SDS011;6187;50.778;6.142;2022-08-19T06:48:05;26.10;;;23.63;;
12248;SDS011;6187;50.778;6.142;2022-08-19T06:50:37;25.13;;;22.60;;
12248;SDS011;6187;50.778;6.142;2022-08-19T06:53:06;27.57;;;24.97;;
12248;SDS011;6187;50.778;6.142;2022-08-19T06:55:35;23.43;;;21.33;;
12248;SDS011;6187;50.778;6.142;2022-08-19T06:58:04;22.33;;;20.23;;
12248;SDS011;6187;50.778;6.142;2022-08-19T07:00:33;24.50;;;22.20;;
12248;SDS011;6187;50.778;6.142;2022-08-19T07:03:03;22.73;;;20.63;;
12248;SDS011;6187;50.778;6.142;2022-08-19T07:05:38;24.17;;;21.87;;
12248;SDS011;6187;50.778;6.142;2022-08-19T07:08:08;25.27;;;22.73;;
12248;SDS011;6187;50.778;6.142;2022-08-19T07:10:41;22.00;;;20.10;;
12248;SDS011;6187;50.778;6.142;2022-08-19T07:13:10;23.17;;;20.77;;
12248;SDS011;6187;50.778;6.142;2022-08-19T07:15:40;22.37;;;20.27;;
12248;SDS011;6187;50.778;6.142;2022-08-19T07:18:09;21.80;;;19.63;;
12248;SDS011;6187;50.778;6.142;2022-08-19T07:20:38;20.27;;;18.37;;
12248;SDS011;6187;50.778;6.142;2022-08-19T07:23:07;20.03;;;18.13;;
12248;SDS011;6187;50.778;6.142;2022-08-19T07:25:42;18.83;;;16.93;;
12248;SDS011;6187;50.778;6.142;2022-08-19T07:28:18;19.03;;;17.13;;
12248;SDS011;6187;50.778;6.142;2022-08-19T07:30:51;20.13;;;18.13;;
12248;SDS011;6187;50.778;6.142;2022-08-19T07:33:21;22.13;;;19.93;;
12248;SDS011;6187;50.778;6.142;2022-08-19T07:35:53;24.63;;;22.33;;
12248;SDS011;6187;50.778;6.142;2022-08-19T07:38:22;24.23;;;21.93;;
12248;SDS011;6187;50.778;6.142;2022-08-19T07:40:50;27.33;;;24.50;;
12248;SDS011;6187;50.778;6.142;2022-08-19T07:43:20;23.73;;;21.53;;
12248;SDS011;6187;50.778;6.142;2022-08-19T07:46:02;24.70;;;22.30;;
12248;SDS011;6187;50.778;6.142;2022-08-19T07:48:30;24.90;;;22.50;;
12248;SDS011;6187;50.778;6.142;2022-08-19T07:51:00;25.97;;;23.47;;
12248;SDS011;6187;50.778;6.142;2022-08-19T07:53:29;26.30;;;23.80;;
12248;SDS011;6187;50.778;6.142;2022-08-19T07:56:05;26.23;;;23.73;;
12248;SDS011;6187;50.778;6.142;2022-08-19T07:58:36;25.87;;;23.50;;
12248;SDS011;6187;50.778;6.142;2022-08-19T08:01:07;30.17;;;27.20;;
12248;SDS011;6187;50.778;6.142;2022-08-19T08:03:36;31.13;;;28.03;;
12248;SDS011;6187;50.778;6.142;2022-08-19T08:06:23;26.77;;;24.27;;
12248;SDS011;6187;50.778;6.142;2022-08-19T08:09:12;28.27;;;25.50;;
12248;SDS011;6187;50.778;6.142;2022-08-19T08:11:53;28.47;;;25.67;;
12248;SDS011;6187;50.778;6.142;2022-08-19T08:14:31;31.27;;;28.00;;
12248;SDS011;6187;50.778;6.142;2022-08-19T08:17:03;29.57;;;26.77;;
12248;SDS011;6187;50.778;6.142;2022-08-19T08:19:36;30.83;;;27.50;;
12248;SDS011;6187;50.778;6.142;2022-08-19T08:22:07;28.07;;;25.47;;
12248;SDS011;6187;50.778;6.142;2022-08-19T08:24:59;26.27;;;23.70;;
12248;SDS011;6187;50.778;6.142;2022-08-19T08:27:34;25.70;;;23.13;;
12248;SDS011;6187;50.778;6.142;2022-08-19T08:30:06;24.77;;;22.53;;
12248;SDS011;6187;50.778;6.142;2022-08-19T08:32:38;26.13;;;23.67;;
12248;SDS011;6187;50.778;6.142;2022-08-19T08:35:09;26.90;;;24.40;;
12248;SDS011;6187;50.778;6.142;2022-08-19T08:37:38;23.43;;;21.37;;
12248;SDS011;6187;50.778;6.142;2022-08-19T08:40:10;24.50;;;22.27;;
12248;SDS011;6187;50.778;6.142;2022-08-19T08:42:44;25.47;;;23.17;;
12248;SDS011;6187;50.778;6.142;2022-08-19T08:45:16;26.23;;;23.77;;
12248;SDS011;6187;50.778;6.142;2022-08-19T08:47:47;26.30;;;24.00;;
12248;SDS011;6187;50.778;6.142;2022-08-19T08:50:18;26.33;;;24.03;;
12248;SDS011;6187;50.778;6.142;2022-08-19T08:52:53;26.07;;;23.70;;
12248;SDS011;6187;50.778;6.142;2022-08-19T08:55:25;28.10;;;25.67;;
12248;SDS011;6187;50.778;6.142;2022-08-19T08:58:03;27.63;;;25.23;;
12248;SDS011;6187;50.778;6.142;2022-08-19T09:00:33;28.10;;;25.70;;
12248;SDS011;6187;50.778;6.142;2022-08-19T09:03:05;28.57;;;26.00;;
12248;SDS011;6187;50.778;6.142;2022-08-19T09:05:36;27.77;;;25.43;;
12248;SDS011;6187;50.778;6.142;2022-08-19T09:08:16;28.97;;;26.33;;
12248;SDS011;6187;50.778;6.142;2022-08-19T09:10:46;27.70;;;25.27;;
12248;SDS011;6187;50.778;6.142;2022-08-19T09:13:22;26.87;;;24.33;;
12248;SDS011;6187;50.778;6.142;2022-08-19T09:15:56;28.47;;;25.77;;
12248;SDS011;6187;50.778;6.142;2022-08-19T09:18:36;28.30;;;25.80;;
12248;SDS011;6187;50.778;6.142;2022-08-19T09:21:06;27.27;;;24.87;;
12248;SDS011;6187;50.778;6.142;2022-08-19T09:23:35;27.23;;;24.73;;
12248;SDS011;6187;50.778;6.142;2022-08-19T09:26:06;29.17;;;26.40;;
12248;SDS011;6187;50.778;6.142;2022-08-19T09:28:37;25.33;;;23.03;;
12248;SDS011;6187;50.778;6.142;2022-08-19T09:31:15;24.77;;;22.70;;
12248;SDS011;6187;50.778;6.142;2022-08-19T09:33:45;26.27;;;23.77;;
12248;SDS011;6187;50.778;6.142;2022-08-19T09:36:19;25.20;;;22.90;;
12248;SDS011;6187;50.778;6.142;2022-08-19T09:39:02;25.20;;;22.90;;
12248;SDS011;6187;50.778;6.142;2022-08-19T09:41:42;25.67;;;23.03;;
12248;SDS011;6187;50.778;6.142;2022-08-19T09:44:14;25.10;;;22.80;;
12248;SDS011;6187;50.778;6.142;2022-08-19T09:46:44;24.57;;;22.17;;
12248;SDS011;6187;50.778;6.142;2022-08-19T09:49:16;22.93;;;20.73;;
12248;SDS011;6187;50.778;6.142;2022-08-19T09:51:48;23.27;;;21.07;;
12248;SDS011;6187;50.778;6.142;2022-08-19T09:54:17;24.07;;;21.77;;
12248;SDS011;6187;50.778;6.142;2022-08-19T09:56:50;22.93;;;20.83;;
12248;SDS011;6187;50.778;6.142;2022-08-19T09:59:19;21.33;;;19.43;;
12248;SDS011;6187;50.778;6.142;2022-08-19T10:01:48;23.93;;;21.63;;
12248;SDS011;6187;50.778;6.142;2022-08-19T10:04:20;21.83;;;19.83;;
12248;SDS011;6187;50.778;6.142;2022-08-19T10:06:50;22.80;;;20.60;;
12248;SDS011;6187;50.778;6.142;2022-08-19T10:09:21;23.27;;;21.03;;
12248;SDS011;6187;50.778;6.142;2022-08-19T10:12:00;22.63;;;20.43;;
12248;SDS011;6187;50.778;6.142;2022-08-19T10:14:29;21.20;;;19.20;;
12248;SDS011;6187;50.778;6.142;2022-08-19T10:17:00;21.50;;;19.50;;
12248;SDS011;6187;50.778;6.142;2022-08-19T10:19:49;21.87;;;19.77;;
12248;SDS011;6187;50.778;6.142;2022-08-19T10:22:21;21.30;;;19.37;;
12248;SDS011;6187;50.778;6.142;2022-08-19T10:24:51;19.50;;;17.70;;
12248;SDS011;6187;50.778;6.142;2022-08-19T10:27:20;20.60;;;18.47;;
12248;SDS011;6187;50.778;6.142;2022-08-19T10:29:51;22.13;;;19.93;;
12248;SDS011;6187;50.778;6.142;2022-08-19T10:32:20;20.27;;;18.37;;
12248;SDS011;6187;50.778;6.142;2022-08-19T10:35:01;20.07;;;18.27;;
12248;SDS011;6187;50.778;6.142;2022-08-19T10:37:32;20.57;;;18.77;;
12248;SDS011;6187;50.778;6.142;2022-08-19T10:40:01;18.70;;;16.80;;
12248;SDS011;6187;50.778;6.142;2022-08-19T10:42:30;19.40;;;17.47;;
12248;SDS011;6187;50.778;6.142;2022-08-19T10:44:59;18.87;;;17.17;;
12248;SDS011;6187;50.778;6.142;2022-08-19T10:47:30;19.07;;;17.20;;
12248;SDS011;6187;50.778;6.142;2022-08-19T10:50:00;17.83;;;16.27;;
12248;SDS011;6187;50.778;6.142;2022-08-19T10:52:54;18.43;;;16.73;;
12248;SDS011;6187;50.778;6.142;2022-08-19T10:55:23;17.63;;;15.97;;
12248;SDS011;6187;50.778;6.142;2022-08-19T10:58:10;16.77;;;15.07;;
12248;SDS011;6187;50.778;6.142;2022-08-19T11:00:39;16.23;;;14.63;;
12248;SDS011;6187;50.778;6.142;2022-08-19T11:03:09;16.17;;;14.47;;
12248;SDS011;6187;50.778;6.142;2022-08-19T11:05:39;15.20;;;13.63;;
12248;SDS011;6187;50.778;6.142;2022-08-19T11:08:08;16.33;;;14.73;;
12248;SDS011;6187;50.778;6.142;2022-08-19T11:10:50;16.47;;;14.87;;
12248;SDS011;6187;50.778;6.142;2022-08-19T11:13:20;17.20;;;15.50;;
12248;SDS011;6187;50.778;6.142;2022-08-19T11:15:55;16.23;;;14.70;;
12248;SDS011;6187;50.778;6.142;2022-08-19T11:18:29;17.90;;;16.23;;
12248;SDS011;6187;50.778;6.142;2022-08-19T11:21:05;16.67;;;14.97;;
12248;SDS011;6187;50.778;6.142;2022-08-19T11:23:34;17.17;;;15.47;;
12248;SDS011;6187;50.778;6.142;2022-08-19T11:26:03;18.50;;;16.67;;
12248;SDS011;6187;50.778;6.142;2022-08-19T11:28:32;18.00;;;16.40;;
12248;SDS011;6187;50.778;6.142;2022-08-19T11:31:00;16.80;;;15.30;;
12248;SDS011;6187;50.778;6.142;2022-08-19T11:33:29;16.13;;;14.63;;
12248;SDS011;6187;50.778;6.142;2022-08-19T11:35:59;16.20;;;14.70;;
12248;SDS011;6187;50.778;6.142;2022-08-19T11:38:30;17.45;;;15.77;;
12248;SDS011;6187;50.778;6.142;2022-08-19T11:41:00;15.70;;;14.30;;
12248;SDS011;6187;50.778;6.142;2022-08-19T11:43:29;18.05;;;16.38;;
12248;SDS011;6187;50.778;6.142;2022-08-19T11:46:03;16.88;;;15.27;;
12248;SDS011;6187;50.778;6.142;2022-08-19T11:48:34;15.63;;;14.30;;
12248;SDS011;6187;50.778;6.142;2022-08-19T11:51:04;17.07;;;15.57;;
12248;SDS011;6187;50.778;6.142;2022-08-19T11:53:35;17.35;;;15.82;;
12248;SDS011;6187;50.778;6.142;2022-08-19T11:56:04;16.98;;;15.25;;
12248;SDS011;6187;50.778;6.142;2022-08-19T11:58:33;16.75;;;15.23;;
12248;SDS011;6187;50.778;6.142;2022-08-19T12:01:04;16.25;;;14.65;;
12248;SDS011;6187;50.778;6.142;2022-08-19T12:03:33;15.15;;;13.75;;
12248;SDS011;6187;50.778;6.142;2022-08-19T12:06:03;15.55;;;13.95;;
12248;SDS011;6187;50.778;6.142;2022-08-19T12:08:31;14.32;;;12.93;;
12248;SDS011;6187;50.778;6.142;2022-08-19T12:11:01;14.27;;;12.88;;
12248;SDS011;6187;50.778;6.142;2022-08-19T12:13:30;14.10;;;12.80;;
12248;SDS011;6187;50.778;6.142;2022-08-19T12:15:59;14.63;;;13.15;;
12248;SDS011;6187;50.778;6.142;2022-08-19T12:18:30;10.57;;;9.57;;
12248;SDS011;6187;50.778;6.142;2022-08-19T12:20:59;8.35;;;7.65;;
12248;SDS011;6187;50.778;6.142;2022-08-19T12:23:28;9.65;;;8.68;;
12248;SDS011;6187;50.778;6.142;2022-08-19T12:25:57;7.32;;;6.72;;
12248;SDS011;6187;50.778;6.142;2022-08-19T12:28:27;7.13;;;6.50;;
12248;SDS011;6187;50.778;6.142;2022-08-19T12:30:55;8.93;;;7.15;;
12248;SDS011;6187;50.778;6.142;2022-08-19T12:33:24;6.28;;;5.78;;
12248;SDS011;6187;50.778;6.142;2022-08-19T12:35:54;6.35;;;5.60;;
12248;SDS011;6187;50.778;6.142;2022-08-19T12:38:27;5.00;;;4.60;;
12248;SDS011;6187;50.778;6.142;2022-08-19T12:40:56;6.00;;;5.13;;
12248;SDS011;6187;50.778;6.142;2022-08-19T12:43:27;7.18;;;5.50;;
12248;SDS011;6187;50.778;6.142;2022-08-19T12:45:56;4.82;;;4.43;;
12248;SDS011;6187;50.778;6.142;2022-08-19T12:48:26;5.43;;;4.93;;
12248;SDS011;6187;50.778;6.142;2022-08-19T12:51:00;4.80;;;4.40;;
12248;SDS011;6187;50.778;6.142;2022-08-19T12:53:29;4.25;;;3.78;;
12248;SDS011;6187;50.778;6.142;2022-08-19T12:56:00;4.50;;;3.65;;
12248;SDS011;6187;50.778;6.142;2022-08-19T12:58:34;3.78;;;3.00;;
12248;SDS011;6187;50.778;6.142;2022-08-19T13:01:06;5.68;;;3.70;;
12248;SDS011;6187;50.778;6.142;2022-08-19T13:03:35;3.72;;;3.42;;
12248;SDS011;6187;50.778;6.142;2022-08-19T13:06:06;4.25;;;3.15;;
12248;SDS011;6187;50.778;6.142;2022-08-19T13:08:35;3.75;;;2.85;;
12248;SDS011;6187;50.778;6.142;2022-08-19T13:11:08;4.95;;;2.70;;
12248;SDS011;6187;50.778;6.142;2022-08-19T13:13:40;3.20;;;2.90;;
12248;SDS011;6187;50.778;6.142;2022-08-19T13:16:11;4.80;;;3.20;;
12248;SDS011;6187;50.778;6.142;2022-08-19T13:18:40;3.88;;;3.20;;
12248;SDS011;6187;50.778;6.142;2022-08-19T13:21:10;3.40;;;3.10;;
12248;SDS011;6187;50.778;6.142;2022-08-19T13:23:39;2.90;;;2.60;;
12248;SDS011;6187;50.778;6.142;2022-08-19T13:26:09;2.90;;;2.60;;
12248;SDS011;6187;50.778;6.142;2022-08-19T13:28:39;3.63;;;2.80;;
12248;SDS011;6187;50.778;6.142;2022-08-19T13:31:28;3.03;;;2.47;;
12248;SDS011;6187;50.778;6.142;2022-08-19T13:34:15;2.70;;;2.50;;
12248;SDS011;6187;50.778;6.142;2022-08-19T13:36:44;2.37;;;2.17;;
12248;SDS011;6187;50.778;6.142;2022-08-19T13:39:13;2.67;;;2.10;;
12248;SDS011;6187;50.778;6.142;2022-08-19T13:41:43;2.30;;;2.10;;
12248;SDS011;6187;50.778;6.142;2022-08-19T13:44:16;2.27;;;1.87;;
12248;SDS011;6187;50.778;6.142;2022-08-19T13:46:45;2.27;;;1.77;;
12248;SDS011;6187;50.778;6.142;2022-08-19T13:49:19;2.77;;;1.80;;
12248;SDS011;6187;50.778;6.142;2022-08-19T13:51:49;2.13;;;1.90;;
12248;SDS011;6187;50.778;6.142;2022-08-19T13:54:18;1.80;;;1.60;;
12248;SDS011;6187;50.778;6.142;2022-08-19T13:56:46;1.80;;;1.70;;
12248;SDS011;6187;50.778;6.142;2022-08-19T13:59:16;2.40;;;1.70;;
12248;SDS011;6187;50.778;6.142;2022-08-19T14:01:45;1.97;;;1.77;;
12248;SDS011;6187;50.778;6.142;2022-08-19T14:04:14;1.90;;;1.80;;
12248;SDS011;6187;50.778;6.142;2022-08-19T14:06:42;1.93;;;1.83;;
12248;SDS011;6187;50.778;6.142;2022-08-19T14:09:11;2.30;;;2.10;;
12248;SDS011;6187;50.778;6.142;2022-08-19T14:11:40;2.43;;;2.00;;
12248;SDS011;6187;50.778;6.142;2022-08-19T14:14:08;2.03;;;1.80;;
12248;SDS011;6187;50.778;6.142;2022-08-19T14:16:43;2.47;;;2.27;;
12248;SDS011;6187;50.778;6.142;2022-08-19T14:19:12;2.50;;;2.30;;
12248;SDS011;6187;50.778;6.142;2022-08-19T14:21:40;3.13;;;1.90;;
12248;SDS011;6187;50.778;6.142;2022-08-19T14:24:09;2.60;;;2.00;;
12248;SDS011;6187;50.778;6.142;2022-08-19T14:26:38;2.30;;;2.10;;
12248;SDS011;6187;50.778;6.142;2022-08-19T14:29:06;2.93;;;2.30;;
12248;SDS011;6187;50.778;6.142;2022-08-19T14:31:35;3.00;;;2.23;;
12248;SDS011;6187;50.778;6.142;2022-08-19T14:34:07;3.37;;;2.17;;
12248;SDS011;6187;50.778;6.142;2022-08-19T14:36:36;2.50;;;2.30;;
12248;SDS011;6187;50.778;6.142;2022-08-19T14:39:05;2.70;;;2.40;;
12248;SDS011;6187;50.778;6.142;2022-08-19T14:41:34;2.67;;;2.43;;
12248;SDS011;6187;50.778;6.142;2022-08-19T14:44:02;4.77;;;2.60;;
12248;SDS011;6187;50.778;6.142;2022-08-19T14:46:31;2.63;;;2.43;;
12248;SDS011;6187;50.778;6.142;2022-08-19T14:49:00;4.03;;;3.00;;
12248;SDS011;6187;50.778;6.142;2022-08-19T14:51:36;3.40;;;2.57;;
12248;SDS011;6187;50.778;6.142;2022-08-19T14:54:05;2.67;;;2.47;;
12248;SDS011;6187;50.778;6.142;2022-08-19T14:56:33;3.07;;;2.47;;
12248;SDS011;6187;50.778;6.142;2022-08-19T14:59:02;4.07;;;2.63;;
12248;SDS011;6187;50.778;6.142;2022-08-19T15:01:31;3.03;;;2.53;;
12248;SDS011;6187;50.778;6.142;2022-08-19T15:04:00;2.83;;;2.20;;
12248;SDS011;6187;50.778;6.142;2022-08-19T15:06:28;2.70;;;2.50;;